Terminal Aerodrome Forecast
Issued by NWS Melbourne, FL

Home | Current Version | Previous Version | Text Only | Print | Product List | Glossary On
Versions: 1 2 3 4 5 6 7 8 9 10 11 12 13 14 15 16 17 18 19 20 21 22
000
FTUS42 KMLB 250800 AAA
TAFMCO
TAF AMD
KMCO 250852Z 2509/2606 29007KT P6SM SCT015 BKN250
      TEMPO 2509/2510 BKN015
     FM251200 33011KT P6SM SCT035 BKN110 BKN250
     FM260200 04005KT P6SM SCT025 BKN040=

USA.gov is the U.S. government's official web portal to all federal, state and local government web resources and services.